createdAt,value
2023-01-11T00:00:44.775Z,98028.22
2023-01-11T00:03:11.891Z,98034.63
2023-01-11T00:05:41.665Z,98022.56
2023-01-11T00:08:09.346Z,97998.09
2023-01-11T00:10:36.659Z,98017.63
2023-01-11T00:13:04.348Z,98018.94
2023-01-11T00:15:32.235Z,98008.06
2023-01-11T00:17:59.319Z,98020.50
2023-01-11T00:20:26.422Z,98015.38
2023-01-11T00:22:54.826Z,98019.47
2023-01-11T00:25:21.923Z,98017.75
2023-01-11T00:27:49.039Z,98027.66
2023-01-11T00:30:16.720Z,98018.56
2023-01-11T00:32:44.092Z,98004.66
2023-01-11T00:35:11.808Z,98001.78
2023-01-11T00:37:38.946Z,97983.78
2023-01-11T00:40:08.914Z,97985.38
2023-01-11T00:42:36.193Z,97994.59
2023-01-11T00:45:03.613Z,97993.53
2023-01-11T00:47:30.715Z,97987.66
2023-01-11T00:49:57.917Z,97989.78
2023-01-11T00:52:25.025Z,97990.91
2023-01-11T00:54:52.221Z,97981.97
2023-01-11T00:57:20.741Z,97986.84
2023-01-11T00:59:47.797Z,97991.38
2023-01-11T01:02:14.919Z,97986.72
2023-01-11T01:04:42.048Z,97989.59
2023-01-11T01:07:09.134Z,97994.66
2023-01-11T01:09:36.224Z,97990.66
2023-01-11T01:12:04.329Z,97991.41
2023-01-11T01:14:33.246Z,97983.94
2023-01-11T01:17:02.464Z,97991.41
2023-01-11T01:19:31.006Z,97985.97
2023-01-11T01:21:59.208Z,97983.50
2023-01-11T01:24:26.717Z,97991.50
2023-01-11T01:26:53.943Z,97983.25
2023-01-11T01:29:21.389Z,97988.09
2023-01-11T01:31:49.850Z,97974.50
2023-01-11T01:34:17.274Z,97970.50
2023-01-11T01:36:44.384Z,97967.50
2023-01-11T01:39:12.176Z,97953.59
2023-01-11T01:41:39.446Z,97954.72
2023-01-11T01:44:39.936Z,97956.78
2023-01-11T01:47:08.969Z,97940.75
2023-01-11T01:49:36.715Z,97942.00
2023-01-11T01:52:04.030Z,97945.81
2023-01-11T01:54:35.690Z,97944.44
2023-01-11T01:57:12.289Z,97943.59
2023-01-11T01:59:40.095Z,97938.47
2023-01-11T02:02:08.630Z,97951.63
2023-01-11T02:04:39.710Z,97944.31
2023-01-11T02:07:09.772Z,97935.41
2023-01-11T02:09:43.383Z,97948.25
2023-01-11T02:12:11.288Z,97954.47
2023-01-11T02:14:41.368Z,97943.19
2023-01-11T02:17:10.276Z,97940.44
2023-01-11T02:19:51.398Z,97931.88
2023-01-11T02:22:47.048Z,97941.09
2023-01-11T02:25:48.532Z,97940.59
2023-01-11T02:28:24.268Z,97937.97
2023-01-11T02:31:00.555Z,97931.78
2023-01-11T02:33:37.551Z,97924.28
2023-01-11T02:36:12.880Z,97924.00
2023-01-11T02:38:44.833Z,97921.31
2023-01-11T02:41:21.435Z,97915.97
2023-01-11T02:43:59.862Z,97911.38
2023-01-11T02:46:32.928Z,97911.63
2023-01-11T02:49:08.369Z,97915.38
2023-01-11T02:51:41.009Z,97902.38
2023-01-11T02:54:10.137Z,97925.81
2023-01-11T02:56:40.365Z,97868.81
2023-01-11T02:59:11.947Z,97913.59
2023-01-11T03:01:44.690Z,97915.97
2023-01-11T03:04:23.306Z,97915.19
2023-01-11T03:06:58.268Z,97916.53
2023-01-11T03:09:35.198Z,97918.91
2023-01-11T03:12:17.057Z,97915.41
2023-01-11T03:15:00.328Z,97914.63
2023-01-11T03:17:42.110Z,97912.56
2023-01-11T03:20:17.791Z,97875.59
2023-01-11T03:22:57.623Z,97917.16
2023-01-11T03:25:34.379Z,97907.75
2023-01-11T03:28:10.069Z,97902.94
2023-01-11T03:30:47.723Z,97902.97
2023-01-11T03:33:20.297Z,97896.56
2023-01-11T03:35:53.432Z,97899.50
2023-01-11T03:38:24.873Z,97896.41
2023-01-11T03:40:55.660Z,97882.84
2023-01-11T03:43:24.529Z,97885.78
2023-01-11T03:45:56.792Z,97881.94
2023-01-11T03:48:29.110Z,97869.84
2023-01-11T03:53:27.438Z,97868.41
2023-01-11T03:55:57.678Z,97863.88
2023-01-11T03:58:26.998Z,97856.34
2023-01-11T04:00:56.519Z,97859.25
2023-01-11T04:03:26.905Z,97856.50
2023-01-11T04:05:58.667Z,97850.78
2023-01-11T04:08:25.766Z,97853.19
2023-01-11T04:10:52.884Z,97850.47
2023-01-11T04:13:20.027Z,97826.50
2023-01-11T04:15:47.165Z,97854.72
2023-01-11T04:18:15.575Z,97848.75
2023-01-11T04:20:42.642Z,97855.09
2023-01-11T04:23:09.855Z,97858.56
2023-01-11T04:25:36.944Z,97859.13
2023-01-11T04:28:04.640Z,97863.69
2023-01-11T04:30:32.112Z,97861.75
2023-01-11T04:32:59.565Z,97860.09
2023-01-11T04:35:27.996Z,97854.97
2023-01-11T04:37:55.626Z,97858.47
2023-01-11T04:40:22.933Z,97855.44
2023-01-11T04:42:50.032Z,97841.13
2023-01-11T04:45:17.191Z,97845.97
2023-01-11T04:47:44.271Z,97837.38
2023-01-11T04:50:12.144Z,97841.91
2023-01-11T04:52:40.634Z,97842.50
2023-01-11T04:55:08.214Z,97839.75
2023-01-11T04:57:35.296Z,97842.44
2023-01-11T05:00:02.707Z,97840.88
2023-01-11T05:02:29.772Z,97845.53
2023-01-11T05:04:56.855Z,97840.22
2023-01-11T05:07:24.219Z,97837.94
2023-01-11T05:09:52.621Z,97831.09
2023-01-11T05:12:19.687Z,97833.88
2023-01-11T05:14:46.842Z,97822.81
2023-01-11T05:17:14.844Z,97823.34
2023-01-11T05:19:42.266Z,97826.41
2023-01-11T05:22:10.080Z,97829.94
2023-01-11T05:24:37.178Z,97829.69
2023-01-11T05:27:05.665Z,97824.28
2023-01-11T05:29:32.767Z,97824.25
2023-01-11T05:31:59.918Z,97829.91
2023-01-11T05:34:27.071Z,97826.69
2023-01-11T05:36:54.171Z,97824.78
2023-01-11T05:39:21.246Z,97813.97
2023-01-11T05:41:48.355Z,97816.38
2023-01-11T05:44:16.774Z,97816.16
2023-01-11T05:46:44.376Z,97811.09
2023-01-11T05:49:13.422Z,97810.00
2023-01-11T05:51:41.390Z,97816.47
2023-01-11T05:54:12.331Z,97815.13
2023-01-11T05:56:39.734Z,97811.63
2023-01-11T05:59:06.831Z,97825.88
2023-01-11T06:01:35.357Z,97824.25
2023-01-11T06:04:02.470Z,97821.28
2023-01-11T06:06:29.668Z,97810.53
2023-01-11T06:08:56.833Z,97826.66
2023-01-11T06:11:23.946Z,97825.59
2023-01-11T06:13:51.030Z,97822.06
2023-01-11T06:16:20.628Z,97814.25
2023-01-11T06:18:50.657Z,97813.13
2023-01-11T06:21:18.613Z,97792.16
2023-01-11T06:23:48.490Z,97802.38
2023-01-11T06:26:17.074Z,97793.53
2023-01-11T06:28:44.704Z,97800.84
2023-01-11T06:31:12.065Z,97799.53
2023-01-11T06:33:39.500Z,97775.03
2023-01-11T06:36:10.217Z,97796.59
2023-01-11T06:38:37.707Z,97789.31
2023-01-11T06:41:07.019Z,97785.53
2023-01-11T06:43:34.605Z,97795.53
2023-01-11T06:46:01.920Z,97794.19
2023-01-11T06:48:29.086Z,97789.09
2023-01-11T06:50:58.067Z,97791.00
2023-01-11T06:53:29.148Z,97783.44
2023-01-11T06:55:57.936Z,97796.09
2023-01-11T06:58:26.042Z,97787.47
2023-01-11T07:00:55.237Z,97791.25
2023-01-11T07:03:23.620Z,97788.81
2023-01-11T07:05:51.652Z,97786.41
2023-01-11T07:08:18.819Z,97787.22
2023-01-11T07:10:47.731Z,97760.00
2023-01-11T07:13:15.162Z,97806.78
2023-01-11T07:15:42.435Z,97807.06
2023-01-11T07:18:09.823Z,97805.97
2023-01-11T07:20:37.466Z,97798.97
2023-01-11T07:23:04.570Z,97807.03
2023-01-11T07:25:31.659Z,97804.63
2023-01-11T07:28:02.169Z,97797.34
2023-01-11T07:30:31.171Z,97802.72
2023-01-11T07:32:59.343Z,97795.41
2023-01-11T07:35:28.891Z,97790.50
2023-01-11T07:37:56.281Z,97794.78
2023-01-11T07:40:23.377Z,97789.69
2023-01-11T07:42:51.863Z,97786.25
2023-01-11T07:45:20.395Z,97779.28
2023-01-11T07:47:49.623Z,97775.00
2023-01-11T07:50:16.824Z,97769.13
2023-01-11T07:52:46.992Z,97761.09
2023-01-11T07:55:14.218Z,97763.53
2023-01-11T07:57:41.328Z,97779.41
2023-01-11T08:00:09.681Z,97809.28
2023-01-11T08:02:38.377Z,97786.63
2023-01-11T08:05:06.390Z,97798.19
2023-01-11T08:07:33.462Z,97786.06
2023-01-11T08:10:00.586Z,97791.72
2023-01-11T08:12:27.736Z,97793.06
2023-01-11T08:14:55.021Z,97787.97
2023-01-11T08:17:22.114Z,97786.34
2023-01-11T08:19:50.565Z,97791.97
2023-01-11T08:22:17.664Z,97784.97
2023-01-11T08:24:44.760Z,97784.94
2023-01-11T08:27:11.971Z,97771.97
2023-01-11T08:29:39.593Z,97784.63
2023-01-11T08:32:06.662Z,97780.63
2023-01-11T08:34:34.779Z,97781.16
2023-01-11T08:37:03.220Z,97766.13
2023-01-11T08:39:30.319Z,97773.72
2023-01-11T08:41:57.559Z,97776.72
2023-01-11T08:44:33.848Z,97772.16
2023-01-11T08:47:01.624Z,97770.25
2023-01-11T08:49:28.694Z,97768.91
2023-01-11T08:51:56.224Z,97770.25
2023-01-11T08:54:25.186Z,97766.97
2023-01-11T08:56:52.336Z,97754.28
2023-01-11T08:59:19.457Z,97768.03
2023-01-11T09:01:46.615Z,97766.16
2023-01-11T09:04:24.285Z,97756.75
2023-01-11T09:06:53.898Z,97755.69
2023-01-11T09:09:21.013Z,97756.25
2023-01-11T09:11:49.415Z,97750.63
2023-01-11T09:14:16.993Z,97748.44
2023-01-11T09:16:44.063Z,97744.13
2023-01-11T09:19:11.150Z,97744.91
2023-01-11T09:21:38.279Z,97749.78
2023-01-11T09:24:06.097Z,97741.47
2023-01-11T09:26:33.358Z,97745.00
2023-01-11T09:29:01.842Z,97735.00
2023-01-11T09:31:29.074Z,97737.41
2023-01-11T09:33:56.209Z,97748.13
2023-01-11T09:36:23.318Z,97751.81
2023-01-11T09:38:50.616Z,97752.31
2023-01-11T09:41:34.956Z,97746.66
2023-01-11T09:44:07.987Z,97750.69
2023-01-11T09:46:38.012Z,97749.91
2023-01-11T09:49:06.230Z,97752.63
2023-01-11T09:51:36.362Z,97759.41
2023-01-11T09:54:03.600Z,97749.16
2023-01-11T09:56:43.962Z,97747.56
2023-01-11T09:59:20.277Z,97747.28
2023-01-11T10:01:54.118Z,97741.09
2023-01-11T10:04:49.371Z,97738.44
2023-01-11T10:07:41.829Z,97736.06
2023-01-11T10:18:30.558Z,97729.09
2023-01-11T10:21:59.207Z,97714.81
2023-01-11T10:24:31.165Z,97724.50
2023-01-11T10:27:01.227Z,97713.50
2023-01-11T10:29:35.586Z,97715.09
2023-01-11T10:32:11.250Z,97714.28
2023-01-11T10:34:44.395Z,97714.84
2023-01-11T10:37:15.579Z,97704.06
2023-01-11T10:39:48.397Z,97708.91
2023-01-11T10:42:19.567Z,97687.94
2023-01-11T10:44:55.628Z,97696.78
2023-01-11T10:47:29.399Z,97691.69
2023-01-11T10:50:00.656Z,97682.56
2023-01-11T10:52:35.624Z,97687.63
2023-01-11T10:55:11.739Z,97680.31
2023-01-11T10:58:00.618Z,97677.31
2023-01-11T11:00:37.041Z,97667.66
2023-01-11T11:03:22.829Z,97663.94
2023-01-11T11:05:56.847Z,97664.22
2023-01-11T11:08:30.687Z,97669.09
2023-01-11T11:11:02.971Z,97647.56
2023-01-11T11:13:43.558Z,97641.94
2023-01-11T11:16:33.696Z,97622.03
2023-01-11T11:19:02.460Z,97639.78
2023-01-11T11:21:35.423Z,97650.56
2023-01-11T11:24:06.864Z,97652.72
2023-01-11T11:26:37.562Z,97651.91
2023-01-11T11:29:06.724Z,97651.06
2023-01-11T11:31:36.268Z,97640.31
2023-01-11T11:34:14.990Z,97636.56
2023-01-11T11:36:44.089Z,97630.34
2023-01-11T11:39:18.672Z,97622.56
2023-01-11T11:41:48.197Z,97608.53
2023-01-11T11:44:18.631Z,97611.16
2023-01-11T11:46:56.883Z,97605.66
2023-01-11T11:49:26.065Z,97590.56
2023-01-11T11:51:54.640Z,97598.47
2023-01-11T11:54:25.450Z,97589.88
2023-01-11T11:56:54.680Z,97587.13
2023-01-11T11:59:23.393Z,97583.13
2023-01-11T12:01:58.164Z,97577.53
2023-01-11T12:04:38.074Z,97571.38
2023-01-11T12:07:07.665Z,97566.00
2023-01-11T12:09:36.338Z,97536.19
2023-01-11T12:12:05.127Z,97572.19
2023-01-11T12:14:34.470Z,97570.88
2023-01-11T12:17:21.729Z,97564.16
2023-01-11T12:19:50.399Z,97565.25
2023-01-11T12:22:20.236Z,97555.84
2023-01-11T12:24:49.109Z,97559.13
2023-01-11T12:27:29.802Z,97551.34
2023-01-11T12:30:12.943Z,97545.72
2023-01-11T12:33:00.586Z,97544.94
2023-01-11T12:35:35.887Z,97543.88
2023-01-11T12:38:24.619Z,97552.81
2023-01-11T12:41:08.733Z,97549.03
2023-01-11T12:44:01.833Z,97546.69
2023-01-11T12:46:43.163Z,97554.50
2023-01-11T12:49:33.317Z,97546.44
2023-01-11T12:55:12.931Z,97555.63
2023-01-11T12:57:46.670Z,97540.84
2023-01-11T13:00:26.712Z,97542.69
2023-01-11T13:03:21.500Z,97548.59
2023-01-11T13:05:56.303Z,97548.34
2023-01-11T13:08:36.884Z,97535.16
2023-01-11T13:11:17.187Z,97532.44
2023-01-11T13:13:55.254Z,97530.75
2023-01-11T13:16:30.760Z,97529.34
2023-01-11T13:19:03.527Z,97528.25
2023-01-11T13:21:33.312Z,97537.38
2023-01-11T13:24:05.029Z,97535.75
2023-01-11T13:26:38.024Z,97533.91
2023-01-11T13:29:10.676Z,97530.97
2023-01-11T13:31:38.382Z,97529.38
2023-01-11T13:34:11.926Z,97534.50
2023-01-11T13:36:43.971Z,97532.38
2023-01-11T13:39:18.019Z,97521.16
2023-01-11T13:41:48.857Z,97526.53
2023-01-11T13:44:22.682Z,97518.47
2023-01-11T13:46:59.930Z,97525.19
2023-01-11T13:49:41.058Z,97526.31
2023-01-11T13:52:13.402Z,97519.81
2023-01-11T13:54:49.350Z,97520.38
2023-01-11T13:57:24.933Z,97520.91
2023-01-11T13:59:57.977Z,97520.13
2023-01-11T14:02:37.394Z,97520.91
2023-01-11T14:05:14.446Z,97529.50
2023-01-11T14:07:54.119Z,97523.84
2023-01-11T14:10:38.928Z,97517.03
2023-01-11T14:13:39.340Z,97528.78
2023-01-11T14:16:14.173Z,97532.56
2023-01-11T14:18:51.373Z,97525.03
2023-01-11T14:21:26.076Z,97522.63
2023-01-11T14:23:54.687Z,97524.81
2023-01-11T14:26:38.940Z,97533.72
2023-01-11T14:29:19.303Z,97529.72
2023-01-11T14:32:07.389Z,97522.50
2023-01-11T14:35:06.817Z,97520.09
2023-01-11T14:38:05.088Z,97532.22
2023-01-11T14:40:56.408Z,97529.00
2023-01-11T14:43:57.344Z,97528.72
2023-01-11T14:46:49.877Z,97524.94
2023-01-11T14:49:33.495Z,97526.03
2023-01-11T14:52:04.455Z,97499.16
2023-01-11T14:54:36.020Z,97525.19
2023-01-11T14:57:03.337Z,97522.16
2023-01-11T14:59:38.708Z,97526.13
2023-01-11T15:02:30.916Z,97521.81
2023-01-11T15:05:29.712Z,97528.53
2023-01-11T15:08:22.193Z,97528.81
2023-01-11T15:10:56.943Z,97527.22
2023-01-11T15:13:27.840Z,97529.91
2023-01-11T15:16:10.383Z,97540.41
2023-01-11T15:18:46.101Z,97529.97
2023-01-11T15:21:17.367Z,97524.97
2023-01-11T15:23:50.623Z,97531.38
2023-01-11T15:26:19.741Z,97517.97
2023-01-11T15:28:51.794Z,97519.91
2023-01-11T15:31:34.543Z,97531.41
2023-01-11T15:34:16.780Z,97533.03
2023-01-11T15:37:03.801Z,97530.56
2023-01-11T15:39:37.213Z,97517.06
2023-01-11T15:42:21.113Z,97529.88
2023-01-11T15:45:14.807Z,97527.38
2023-01-11T15:48:00.557Z,97533.16
2023-01-11T15:50:48.737Z,97529.22
2023-01-11T15:53:37.782Z,97542.59
2023-01-11T15:56:46.512Z,97539.66
2023-01-11T15:59:54.090Z,97538.84
2023-01-11T16:02:55.096Z,97544.25
2023-01-11T16:05:25.793Z,97541.56
2023-01-11T16:08:02.692Z,97551.06
2023-01-11T16:10:52.611Z,97546.91
2023-01-11T16:14:01.116Z,97559.63
2023-01-11T16:16:32.047Z,97549.19
2023-01-11T16:19:05.127Z,97569.88
2023-01-11T16:21:34.757Z,97576.13
2023-01-11T16:24:05.897Z,97582.88
2023-01-11T16:26:35.580Z,97589.31
2023-01-11T16:29:10.789Z,97584.50
2023-01-11T16:31:58.330Z,97579.44
2023-01-11T16:34:26.215Z,97583.75
2023-01-11T16:36:53.332Z,97605.53
2023-01-11T16:39:24.944Z,97602.31
2023-01-11T16:41:57.308Z,97602.34
2023-01-11T16:44:37.065Z,97613.66
2023-01-11T16:47:11.483Z,97597.53
2023-01-11T16:49:39.553Z,97607.50
2023-01-11T16:52:33.217Z,97601.34
2023-01-11T16:55:11.904Z,97588.16
2023-01-11T16:57:43.232Z,97607.81
2023-01-11T17:00:24.368Z,97592.97
2023-01-11T17:03:01.629Z,97602.94
2023-01-11T17:05:28.719Z,97604.00
2023-01-11T17:07:55.787Z,97612.59
2023-01-11T17:10:26.579Z,97624.09
2023-01-11T17:13:13.480Z,97610.59
2023-01-11T17:15:52.093Z,97624.03
2023-01-11T17:18:19.225Z,97628.91
2023-01-11T17:20:52.950Z,97627.84
2023-01-11T17:23:20.318Z,97622.41
2023-01-11T17:25:55.125Z,97635.63
2023-01-11T17:28:22.455Z,97631.88
2023-01-11T17:30:51.704Z,97623.84
2023-01-11T17:33:26.340Z,97623.03
2023-01-11T17:35:54.779Z,97636.50
2023-01-11T17:38:23.973Z,97636.28
2023-01-11T17:40:54.189Z,97644.34
2023-01-11T17:43:23.629Z,97653.75
2023-01-11T17:45:52.375Z,97659.13
2023-01-11T17:48:19.760Z,97666.41
2023-01-11T17:50:49.103Z,97665.34
2023-01-11T17:53:20.993Z,97659.16
2023-01-11T17:55:54.835Z,97677.19
2023-01-11T17:58:24.321Z,97656.75
2023-01-11T18:01:19.386Z,97687.66
2023-01-11T18:03:48.371Z,97683.88
2023-01-11T18:06:22.960Z,97686.06
2023-01-11T18:08:52.528Z,97683.03
2023-01-11T18:11:26.686Z,97683.56
2023-01-11T18:13:54.615Z,97678.38
2023-01-11T18:16:22.809Z,97681.31
2023-01-11T18:18:51.771Z,97687.53
2023-01-11T18:21:38.252Z,97690.78
2023-01-11T18:24:37.414Z,97689.72
2023-01-11T18:27:27.229Z,97694.56
2023-01-11T18:29:56.266Z,97699.44
2023-01-11T18:32:24.662Z,97679.78
2023-01-11T18:34:53.744Z,97701.84
2023-01-11T18:37:21.454Z,97712.09
2023-01-11T18:39:50.722Z,97721.53
2023-01-11T18:42:22.969Z,97713.97
2023-01-11T18:44:50.144Z,97706.22
2023-01-11T18:47:20.125Z,97717.50
2023-01-11T18:49:47.644Z,97708.63
2023-01-11T18:52:14.762Z,97718.06
2023-01-11T18:54:42.699Z,97715.63
2023-01-11T18:57:10.356Z,97696.28
2023-01-11T18:59:39.071Z,97727.72
2023-01-11T19:02:18.307Z,97737.69
2023-01-11T19:04:45.935Z,97730.69
2023-01-11T19:07:13.618Z,97738.22
2023-01-11T19:09:41.124Z,97747.13
2023-01-11T19:12:08.318Z,97750.63
2023-01-11T19:14:35.447Z,97756.81
2023-01-11T19:17:03.946Z,97758.16
2023-01-11T19:19:31.061Z,97763.53
2023-01-11T19:21:58.131Z,97759.47
2023-01-11T19:24:25.230Z,97768.59
2023-01-11T19:26:52.307Z,97768.06
2023-01-11T19:29:19.371Z,97776.97
2023-01-11T19:31:47.431Z,97762.97
2023-01-11T19:34:15.889Z,97778.81
2023-01-11T19:36:43.017Z,97780.69
2023-01-11T19:39:10.401Z,97784.72
2023-01-11T19:41:37.826Z,97787.38
2023-01-11T19:44:05.160Z,97789.56
2023-01-11T19:46:32.512Z,97792.78
2023-01-11T19:48:59.668Z,97799.75
2023-01-11T19:51:28.227Z,97799.50
2023-01-11T19:53:55.354Z,97796.50
2023-01-11T19:56:22.427Z,97815.09
2023-01-11T19:58:49.483Z,97818.84
2023-01-11T20:01:16.727Z,97817.75
2023-01-11T20:03:43.858Z,97826.63
2023-01-11T20:06:11.080Z,97824.75
2023-01-11T20:08:40.004Z,97814.22
2023-01-11T20:11:08.274Z,97834.94
2023-01-11T20:13:35.382Z,97830.09
2023-01-11T20:16:04.956Z,97831.41
2023-01-11T20:18:32.076Z,97838.38
2023-01-11T20:20:59.898Z,97831.66
2023-01-11T20:23:27.096Z,97824.63
2023-01-11T20:25:59.954Z,97827.63
2023-01-11T20:28:27.437Z,97835.41
2023-01-11T20:30:54.844Z,97826.81
2023-01-11T20:33:22.193Z,97847.25
2023-01-11T20:35:49.301Z,97838.94
2023-01-11T20:38:16.549Z,97854.81
2023-01-11T20:40:43.918Z,97848.09
2023-01-11T20:43:12.520Z,97853.75
2023-01-11T20:45:40.173Z,97849.97
2023-01-11T20:48:07.551Z,97849.41
2023-01-11T20:50:36.292Z,97839.47
2023-01-11T20:53:03.588Z,97860.97
2023-01-11T20:55:30.714Z,97870.94
2023-01-11T20:57:57.821Z,97871.47
2023-01-11T21:00:26.313Z,97857.19
2023-01-11T21:02:53.385Z,97865.25
2023-01-11T21:05:20.468Z,97857.47
2023-01-11T21:07:47.558Z,97858.28
2023-01-11T21:10:14.657Z,97859.63
2023-01-11T21:12:41.730Z,97869.25
2023-01-11T21:15:09.503Z,97869.28
2023-01-11T21:17:38.008Z,97869.28
2023-01-11T21:20:06.062Z,97874.09
2023-01-11T21:22:33.179Z,97884.03
2023-01-11T21:25:00.249Z,97886.72
2023-01-11T21:27:27.336Z,97886.22
2023-01-11T21:29:54.450Z,97888.91
2023-01-11T21:32:21.510Z,97892.63
2023-01-11T21:34:50.264Z,97888.91
2023-01-11T21:37:17.339Z,97896.16
2023-01-11T21:39:44.398Z,97888.09
2023-01-11T21:42:11.505Z,97899.91
2023-01-11T21:44:38.566Z,97897.22
2023-01-11T21:47:06.585Z,97890.19
2023-01-11T21:49:33.835Z,97908.13
2023-01-11T21:52:02.298Z,97905.47
2023-01-11T21:54:29.395Z,97910.06
2023-01-11T21:56:56.732Z,97909.50
2023-01-11T21:59:23.929Z,97914.34
2023-01-11T22:01:51.099Z,97929.06
2023-01-11T22:04:19.899Z,97930.94
2023-01-11T22:06:48.404Z,97930.75
2023-01-11T22:09:17.775Z,97925.56
2023-01-11T22:11:44.873Z,97921.03
2023-01-11T22:14:12.186Z,97935.56
2023-01-11T22:16:39.549Z,97929.16
2023-01-11T22:19:07.511Z,97931.84
2023-01-11T22:21:35.317Z,97937.28
2023-01-11T22:24:03.296Z,97937.53
2023-01-11T22:26:32.824Z,97938.63
2023-01-11T22:28:59.912Z,97935.38
2023-01-11T22:31:28.838Z,97944.50
2023-01-11T22:33:56.465Z,97938.28
2023-01-11T22:36:25.198Z,97936.69
2023-01-11T22:38:52.852Z,97938.28
2023-01-11T22:41:21.268Z,97929.66
2023-01-11T22:43:49.767Z,97938.56
2023-01-11T22:46:18.628Z,97940.69
2023-01-11T22:48:46.418Z,97945.00
2023-01-11T22:51:14.528Z,97948.94
2023-01-11T22:53:42.929Z,97955.94
2023-01-11T22:56:11.572Z,97954.63
2023-01-11T22:58:38.766Z,97956.28
2023-01-11T23:01:14.665Z,97889.63
2023-01-11T23:03:42.471Z,97959.22
2023-01-11T23:06:10.116Z,97956.28
2023-01-11T23:08:37.371Z,97952.28
2023-01-11T23:11:04.756Z,97963.59
2023-01-11T23:13:31.877Z,97952.25
2023-01-11T23:15:58.944Z,97964.03
2023-01-11T23:18:27.346Z,97968.38
2023-01-11T23:20:54.400Z,97967.50
2023-01-11T23:23:21.487Z,97972.88
2023-01-11T23:25:48.553Z,97967.75
2023-01-11T23:28:15.629Z,97969.59
2023-01-11T23:30:42.740Z,97969.28
2023-01-11T23:33:09.836Z,97975.69
2023-01-11T23:35:38.221Z,97974.09
2023-01-11T23:38:05.434Z,97974.88
2023-01-11T23:40:35.089Z,97972.50
2023-01-11T23:43:02.145Z,97972.16
2023-01-11T23:45:29.311Z,97974.88
2023-01-11T23:47:56.377Z,97980.25
2023-01-11T23:50:23.433Z,97978.38
2023-01-11T23:52:51.862Z,97971.91
2023-01-11T23:55:18.933Z,97975.44
2023-01-11T23:57:46.043Z,97978.16
